createdAt,value
2017-05-18T00:00:12.748Z,0
2017-05-18T00:00:53.309Z,0
2017-05-18T00:01:33.974Z,0
2017-05-18T00:02:14.604Z,0
2017-05-18T00:02:55.153Z,0
2017-05-18T00:03:35.755Z,0
2017-05-18T00:04:16.335Z,0
2017-05-18T00:04:56.857Z,0
2017-05-18T00:05:37.474Z,0
2017-05-18T00:06:18.033Z,0
2017-05-18T00:06:59.682Z,0
2017-05-18T00:07:40.201Z,0
2017-05-18T00:08:20.803Z,0
2017-05-18T00:09:01.357Z,0
2017-05-18T00:09:41.968Z,0
2017-05-18T00:10:22.640Z,0
2017-05-18T00:11:04.207Z,0
2017-05-18T00:11:44.725Z,0
2017-05-18T00:12:25.316Z,0
2017-05-18T00:13:05.911Z,0
2017-05-18T00:13:46.500Z,0
2017-05-18T00:14:27.035Z,0
2017-05-18T00:15:07.638Z,0
2017-05-18T00:15:48.218Z,0
2017-05-18T00:16:28.823Z,0
2017-05-18T00:17:09.369Z,0
2017-05-18T00:17:49.947Z,0
2017-05-18T00:18:30.619Z,0
2017-05-18T00:19:11.223Z,0
2017-05-18T00:19:51.759Z,0
2017-05-18T00:20:32.327Z,0
2017-05-18T00:21:14.203Z,0
2017-05-18T00:21:54.758Z,0
2017-05-18T00:22:35.294Z,0
2017-05-18T00:23:15.895Z,0
2017-05-18T00:23:56.561Z,0
2017-05-18T00:24:37.159Z,0
2017-05-18T00:25:17.689Z,0
2017-05-18T00:25:58.267Z,0
2017-05-18T00:26:38.854Z,0
2017-05-18T00:27:19.468Z,0
2017-05-18T00:27:59.991Z,0
2017-05-18T00:28:40.597Z,0
2017-05-18T00:29:21.224Z,0
2017-05-18T00:30:01.778Z,0
2017-05-18T00:30:42.335Z,0
2017-05-18T00:31:22.986Z,0
2017-05-18T00:32:04.576Z,0
2017-05-18T00:32:45.229Z,0
2017-05-18T00:33:25.818Z,0
2017-05-18T00:34:06.409Z,0
2017-05-18T00:34:46.954Z,0
2017-05-18T00:35:27.510Z,0
2017-05-18T00:36:08.109Z,0
2017-05-18T00:36:48.714Z,0
2017-05-18T00:37:29.246Z,0
2017-05-18T00:38:09.819Z,0
2017-05-18T00:38:50.519Z,0
2017-05-18T00:39:30.988Z,0
2017-05-18T00:40:11.618Z,0
2017-05-18T00:40:52.261Z,0
2017-05-18T00:41:33.083Z,0
2017-05-18T00:42:13.678Z,0
2017-05-18T00:42:54.269Z,0
2017-05-18T00:43:34.834Z,0
2017-05-18T00:44:15.487Z,0
2017-05-18T00:44:56.126Z,0
2017-05-18T00:45:36.793Z,0
2017-05-18T00:46:17.347Z,0
2017-05-18T00:46:58.918Z,0
2017-05-18T00:47:39.575Z,0
2017-05-18T00:48:20.120Z,0
2017-05-18T00:49:00.696Z,0
2017-05-18T00:49:41.267Z,0
2017-05-18T00:50:21.876Z,0
2017-05-18T00:51:02.415Z,0
2017-05-18T00:51:43.000Z,0
2017-05-18T00:52:23.575Z,0
2017-05-18T00:53:05.204Z,0
2017-05-18T00:53:45.763Z,0
2017-05-18T00:54:26.352Z,0
2017-05-18T00:55:06.962Z,0
2017-05-18T00:55:47.485Z,0
2017-05-18T00:56:28.114Z,0
2017-05-18T00:57:08.711Z,0
2017-05-18T00:57:49.211Z,0
2017-05-18T00:58:29.862Z,0
2017-05-18T00:59:10.512Z,0
2017-05-18T00:59:51.061Z,0
2017-05-18T01:00:31.606Z,0
2017-05-18T01:01:12.164Z,0
2017-05-18T01:01:52.718Z,0
2017-05-18T01:02:33.368Z,0
2017-05-18T01:03:13.980Z,0
2017-05-18T01:03:54.603Z,0
2017-05-18T01:04:35.178Z,0
2017-05-18T01:05:15.825Z,0
2017-05-18T01:05:56.482Z,0
2017-05-18T01:06:37.023Z,0
2017-05-18T01:07:17.691Z,0
2017-05-18T01:07:58.239Z,0
2017-05-18T01:08:38.784Z,0
2017-05-18T01:09:19.428Z,0
2017-05-18T01:09:59.994Z,0
2017-05-18T01:10:40.519Z,0
2017-05-18T01:11:21.091Z,0
2017-05-18T01:12:02.762Z,0
2017-05-18T01:12:43.313Z,0
2017-05-18T01:13:23.846Z,0
2017-05-18T01:14:04.407Z,0
2017-05-18T01:14:44.972Z,0
2017-05-18T01:15:25.620Z,0
2017-05-18T01:16:06.153Z,0
2017-05-18T01:16:46.700Z,0
2017-05-18T01:17:27.278Z,0
2017-05-18T01:18:07.822Z,0
2017-05-18T01:18:48.371Z,0
2017-05-18T01:19:28.920Z,0
2017-05-18T01:20:09.576Z,0
2017-05-18T01:20:50.231Z,0
2017-05-18T01:21:30.784Z,0
2017-05-18T01:22:11.422Z,0
2017-05-18T01:22:51.984Z,0
2017-05-18T01:23:32.632Z,0
2017-05-18T01:24:13.185Z,0
2017-05-18T01:24:53.735Z,0
2017-05-18T01:25:34.287Z,0
2017-05-18T01:26:14.835Z,0
2017-05-18T01:26:55.391Z,0
2017-05-18T01:27:35.945Z,0
2017-05-18T01:28:16.474Z,0
2017-05-18T01:28:57.024Z,0
2017-05-18T01:29:37.591Z,0
2017-05-18T01:30:18.147Z,0
2017-05-18T01:30:58.692Z,0
2017-05-18T01:31:39.389Z,0
2017-05-18T01:32:20.003Z,0
2017-05-18T01:33:00.530Z,0
2017-05-18T01:33:41.127Z,0
2017-05-18T01:34:21.700Z,0
2017-05-18T01:35:02.304Z,0
2017-05-18T01:35:42.840Z,0
2017-05-18T01:36:23.432Z,0
2017-05-18T01:37:04.006Z,0
2017-05-18T01:37:44.596Z,0
2017-05-18T01:38:25.158Z,0
2017-05-18T01:39:05.710Z,0
2017-05-18T01:39:46.252Z,0
2017-05-18T01:40:26.917Z,0
2017-05-18T01:41:07.468Z,0
2017-05-18T01:41:48.122Z,0
2017-05-18T01:42:28.666Z,0
2017-05-18T01:43:09.216Z,0
2017-05-18T01:43:49.868Z,0
2017-05-18T01:44:30.421Z,0
2017-05-18T01:45:10.977Z,0
2017-05-18T01:45:51.619Z,0
2017-05-18T01:46:32.176Z,0
2017-05-18T01:47:13.756Z,0
2017-05-18T01:47:54.296Z,0
2017-05-18T01:48:34.953Z,0
2017-05-18T01:49:15.505Z,0
2017-05-18T01:49:56.056Z,0
2017-05-18T01:50:36.695Z,0
2017-05-18T01:51:17.258Z,0
2017-05-18T01:51:57.809Z,0
2017-05-18T01:52:38.355Z,0
2017-05-18T01:53:18.909Z,0
2017-05-18T01:53:59.466Z,0
2017-05-18T01:54:40.003Z,0
2017-05-18T01:55:20.549Z,0
2017-05-18T01:56:01.213Z,0
2017-05-18T01:56:41.764Z,0
2017-05-18T01:57:22.416Z,0
2017-05-18T01:58:02.971Z,0
2017-05-18T01:58:43.512Z,0
2017-05-18T01:59:24.119Z,0
2017-05-18T02:00:04.755Z,0
2017-05-18T02:00:45.314Z,0
2017-05-18T02:01:25.890Z,0
2017-05-18T02:02:06.474Z,0
2017-05-18T02:02:47.045Z,0
2017-05-18T02:03:27.635Z,0
2017-05-18T02:04:08.229Z,0
2017-05-18T02:04:48.778Z,0
2017-05-18T02:05:29.339Z,0
2017-05-18T02:06:09.980Z,0
2017-05-18T02:06:50.640Z,0
2017-05-18T02:07:31.286Z,0
2017-05-18T02:08:11.808Z,0
2017-05-18T02:08:52.402Z,0
2017-05-18T02:09:32.991Z,0
2017-05-18T02:10:13.592Z,0
2017-05-18T02:10:54.111Z,0
2017-05-18T02:11:34.706Z,0
2017-05-18T02:12:15.298Z,0
2017-05-18T02:12:55.916Z,0
2017-05-18T02:13:36.459Z,0
2017-05-18T02:14:17.071Z,0
2017-05-18T02:14:57.650Z,0
2017-05-18T02:15:38.200Z,0
2017-05-18T02:16:18.815Z,0
2017-05-18T02:16:59.413Z,0
2017-05-18T02:17:39.946Z,0
2017-05-18T02:18:20.565Z,0
2017-05-18T02:19:01.161Z,0
2017-05-18T02:19:41.685Z,0
2017-05-18T02:20:22.284Z,0
2017-05-18T02:21:02.863Z,0
2017-05-18T02:21:43.473Z,0
2017-05-18T02:22:23.996Z,0
2017-05-18T02:23:04.592Z,0
2017-05-18T02:23:45.195Z,0
2017-05-18T02:24:25.719Z,0
2017-05-18T02:25:06.312Z,0
2017-05-18T02:25:46.946Z,0
2017-05-18T02:26:27.496Z,0
2017-05-18T02:27:08.047Z,0
2017-05-18T02:27:48.681Z,0
2017-05-18T02:28:29.334Z,0
2017-05-18T02:29:10.033Z,0
2017-05-18T02:29:50.585Z,0
2017-05-18T02:30:31.146Z,0
2017-05-18T02:31:11.785Z,0
2017-05-18T02:31:52.336Z,0
2017-05-18T02:32:32.999Z,0
2017-05-18T02:33:13.550Z,0
2017-05-18T02:33:54.101Z,0
2017-05-18T02:34:34.641Z,0
2017-05-18T02:35:16.221Z,0
2017-05-18T02:35:57.789Z,0
2017-05-18T02:36:38.443Z,0
2017-05-18T02:37:18.996Z,0
2017-05-18T02:37:59.543Z,0
2017-05-18T02:38:40.095Z,0
2017-05-18T02:39:20.654Z,0
2017-05-18T02:40:01.194Z,0
2017-05-18T02:40:42.789Z,0
2017-05-18T02:41:23.321Z,0
2017-05-18T02:42:04.895Z,0
2017-05-18T02:42:45.445Z,0
2017-05-18T02:43:25.967Z,0
2017-05-18T02:44:06.571Z,0
2017-05-18T02:44:47.154Z,0
2017-05-18T02:45:27.763Z,0
2017-05-18T02:46:08.297Z,0
2017-05-18T02:46:48.865Z,0
2017-05-18T02:47:29.475Z,0
2017-05-18T02:48:10.053Z,0
2017-05-18T02:48:50.598Z,4
2017-05-18T02:49:31.186Z,4
2017-05-18T02:50:11.765Z,4
2017-05-18T02:50:52.306Z,4
2017-05-18T02:51:32.898Z,4
2017-05-18T02:52:13.443Z,4
2017-05-18T02:52:53.992Z,4
2017-05-18T02:53:34.568Z,0
2017-05-18T02:54:15.205Z,0
2017-05-18T02:54:55.740Z,4
2017-05-18T02:55:36.366Z,4
2017-05-18T02:56:16.925Z,4
2017-05-18T02:56:57.506Z,4
2017-05-18T02:57:38.066Z,8
2017-05-18T02:58:18.606Z,8
2017-05-18T02:58:59.159Z,4
2017-05-18T02:59:39.709Z,4
2017-05-18T03:00:20.378Z,8
2017-05-18T03:01:00.897Z,8
2017-05-18T03:01:41.527Z,8
2017-05-18T03:02:22.095Z,8
2017-05-18T03:03:02.625Z,8
2017-05-18T03:03:43.261Z,8
2017-05-18T03:04:23.871Z,8
2017-05-18T03:05:04.433Z,12
2017-05-18T03:05:44.965Z,12
2017-05-18T03:06:25.548Z,12
2017-05-18T03:07:06.227Z,16
2017-05-18T03:07:46.789Z,16
2017-05-18T03:08:27.356Z,20
2017-05-18T03:09:07.939Z,20
2017-05-18T03:09:48.491Z,24
2017-05-18T03:10:29.036Z,24
2017-05-18T03:11:09.689Z,28
2017-05-18T03:11:50.227Z,28
2017-05-18T03:12:30.860Z,36
2017-05-18T03:13:11.492Z,36
2017-05-18T03:13:52.104Z,40
2017-05-18T03:14:32.669Z,44
2017-05-18T03:15:13.306Z,48
2017-05-18T03:15:53.843Z,52
2017-05-18T03:16:34.473Z,56
2017-05-18T03:17:15.012Z,60
2017-05-18T03:17:55.612Z,68
2017-05-18T03:18:36.154Z,72
2017-05-18T03:19:16.726Z,76
2017-05-18T03:19:57.326Z,80
2017-05-18T03:20:37.859Z,88
2017-05-18T03:21:18.457Z,92
2017-05-18T03:21:58.989Z,96
2017-05-18T03:22:39.559Z,96
2017-05-18T03:23:20.088Z,100
2017-05-18T03:24:00.718Z,100
2017-05-18T03:24:41.284Z,104
2017-05-18T03:25:21.869Z,112
2017-05-18T03:26:02.515Z,116
2017-05-18T03:26:43.069Z,124
2017-05-18T03:27:23.620Z,132
2017-05-18T03:28:04.155Z,140
2017-05-18T03:28:44.826Z,148
2017-05-18T03:29:25.352Z,156
2017-05-18T03:30:05.933Z,164
2017-05-18T03:30:46.463Z,172
2017-05-18T03:31:26.996Z,176
2017-05-18T03:32:07.596Z,188
2017-05-18T03:32:48.141Z,196
2017-05-18T03:33:28.737Z,208
2017-05-18T03:34:09.298Z,220
2017-05-18T03:34:49.878Z,232
2017-05-18T03:35:30.427Z,248
2017-05-18T03:36:11.082Z,260
2017-05-18T03:36:51.612Z,276
2017-05-18T03:37:32.157Z,292
2017-05-18T03:38:12.756Z,308
2017-05-18T03:38:53.312Z,324
2017-05-18T03:39:34.011Z,344
2017-05-18T03:40:14.536Z,360
2017-05-18T03:40:55.151Z,380
2017-05-18T03:41:35.693Z,404
2017-05-18T03:42:16.256Z,428
2017-05-18T03:42:56.785Z,456
2017-05-18T03:43:37.446Z,488
2017-05-18T03:44:17.994Z,524
2017-05-18T03:44:58.583Z,556
2017-05-18T03:45:39.204Z,592
2017-05-18T03:46:19.750Z,628
2017-05-18T03:47:00.300Z,668
2017-05-18T03:47:40.824Z,712
2017-05-18T03:48:21.423Z,760
2017-05-18T03:49:01.941Z,808
2017-05-18T03:49:43.526Z,864
2017-05-18T03:50:24.071Z,908
2017-05-18T03:51:04.640Z,960
2017-05-18T03:51:45.214Z,1008
2017-05-18T03:52:25.749Z,1056
2017-05-18T03:53:06.292Z,1104
2017-05-18T03:53:46.825Z,1152
2017-05-18T03:54:27.435Z,1200
2017-05-18T03:55:07.974Z,1248
2017-05-18T03:55:48.581Z,1304
2017-05-18T03:56:29.115Z,1360
2017-05-18T03:57:09.681Z,1424
2017-05-18T03:57:50.209Z,1480
2017-05-18T03:58:30.730Z,1536
2017-05-18T03:59:11.364Z,1596
2017-05-18T03:59:51.999Z,1652
2017-05-18T04:00:32.596Z,1708
2017-05-18T04:01:13.135Z,1764
2017-05-18T04:01:53.763Z,1824
2017-05-18T04:02:34.296Z,1884
2017-05-18T04:03:14.855Z,1940
2017-05-18T04:03:55.398Z,2000
2017-05-18T04:04:35.967Z,2056
2017-05-18T04:05:16.489Z,2100
2017-05-18T04:05:57.068Z,2144
2017-05-18T04:06:37.700Z,2196
2017-05-18T04:07:18.233Z,2244
2017-05-18T04:07:58.833Z,2300
2017-05-18T04:08:39.492Z,2352
2017-05-18T04:09:20.113Z,2412
2017-05-18T04:10:00.640Z,2488
2017-05-18T04:10:41.208Z,2560
2017-05-18T04:11:21.735Z,2640
2017-05-18T04:12:02.265Z,2720
2017-05-18T04:12:42.897Z,2800
2017-05-18T04:13:23.426Z,2892
2017-05-18T04:14:03.993Z,2980
2017-05-18T04:14:44.551Z,3056
2017-05-18T04:15:25.188Z,3120
2017-05-18T04:16:05.731Z,3180
2017-05-18T04:16:46.333Z,3228
2017-05-18T04:17:26.892Z,3268
2017-05-18T04:18:08.500Z,3296
2017-05-18T04:18:49.022Z,3316
2017-05-18T04:19:29.566Z,3336
2017-05-18T04:20:10.219Z,3368
2017-05-18T04:20:50.773Z,3412
2017-05-18T04:21:31.371Z,3456
2017-05-18T04:22:11.929Z,3500
2017-05-18T04:22:52.507Z,3532
2017-05-18T04:23:33.041Z,3556
2017-05-18T04:24:13.771Z,3572
2017-05-18T04:24:54.308Z,3588
2017-05-18T04:25:34.912Z,3596
2017-05-18T04:26:15.468Z,3596
2017-05-18T04:26:56.134Z,3576
2017-05-18T04:27:36.618Z,3584
2017-05-18T04:28:17.173Z,3624
2017-05-18T04:28:57.712Z,3664
2017-05-18T04:29:38.290Z,3704
2017-05-18T04:30:18.917Z,3752
2017-05-18T04:30:59.495Z,3808
2017-05-18T04:31:40.121Z,3844
2017-05-18T04:32:20.647Z,3856
2017-05-18T04:33:01.195Z,3852
2017-05-18T04:33:41.805Z,3860
2017-05-18T04:34:22.437Z,3872
2017-05-18T04:35:03.099Z,3872
2017-05-18T04:35:43.617Z,3872
2017-05-18T04:36:24.213Z,3864
2017-05-18T04:37:04.804Z,3856
2017-05-18T04:37:45.394Z,3860
2017-05-18T04:38:25.924Z,3908
2017-05-18T04:39:06.492Z,3964
2017-05-18T04:39:47.047Z,4064
2017-05-18T04:40:27.597Z,4204
2017-05-18T04:41:08.135Z,4348
2017-05-18T04:41:48.694Z,4480
2017-05-18T04:42:29.244Z,4584
2017-05-18T04:43:09.773Z,4692
2017-05-18T04:43:50.350Z,4756
2017-05-18T04:44:30.868Z,4804
2017-05-18T04:45:11.443Z,4836
2017-05-18T04:45:51.969Z,4876
2017-05-18T04:46:32.513Z,4920
2017-05-18T04:47:13.154Z,4952
2017-05-18T04:47:53.695Z,4968
2017-05-18T04:48:34.278Z,5012
2017-05-18T04:49:14.920Z,5080
2017-05-18T04:49:55.564Z,5140
2017-05-18T04:50:36.097Z,5204
2017-05-18T04:51:16.765Z,5288
2017-05-18T04:51:57.363Z,5340
2017-05-18T04:52:37.939Z,5388
2017-05-18T04:53:18.582Z,5460
2017-05-18T04:53:59.300Z,5552
2017-05-18T04:54:39.820Z,5624
2017-05-18T04:55:20.384Z,5704
2017-05-18T04:56:00.985Z,5780
2017-05-18T04:56:41.523Z,5832
2017-05-18T04:57:22.085Z,5872
2017-05-18T04:58:02.622Z,5880
2017-05-18T04:58:43.231Z,5844
2017-05-18T04:59:23.768Z,5872
2017-05-18T05:00:04.341Z,5896
2017-05-18T05:00:44.894Z,5960
2017-05-18T05:01:25.403Z,5984
2017-05-18T05:02:06.034Z,5992
2017-05-18T05:02:46.577Z,5968
2017-05-18T05:03:27.148Z,5924
2017-05-18T05:04:07.675Z,5936
2017-05-18T05:04:48.281Z,5892
2017-05-18T05:05:28.838Z,5836
2017-05-18T05:06:09.387Z,5752
2017-05-18T05:06:49.926Z,5608
2017-05-18T05:07:30.461Z,5540
2017-05-18T05:08:10.997Z,5456
2017-05-18T05:08:51.548Z,5432
2017-05-18T05:09:32.072Z,5448
2017-05-18T05:10:12.697Z,5464
2017-05-18T05:10:53.237Z,5476
2017-05-18T05:11:33.811Z,5500
2017-05-18T05:12:14.404Z,5516
2017-05-18T05:12:55.003Z,5568
2017-05-18T05:13:35.573Z,5516
2017-05-18T05:14:16.262Z,5512
2017-05-18T05:14:56.871Z,5588
2017-05-18T05:15:37.430Z,5632
2017-05-18T05:16:18.132Z,5696
2017-05-18T05:16:58.724Z,5724
2017-05-18T05:17:39.284Z,5688
2017-05-18T05:18:19.824Z,5572
2017-05-18T05:19:00.378Z,5368
2017-05-18T05:19:40.927Z,5312
2017-05-18T05:20:21.520Z,5384
2017-05-18T05:21:02.132Z,5472
2017-05-18T05:21:42.698Z,5548
2017-05-18T05:22:23.441Z,5660
2017-05-18T05:23:04.006Z,5692
2017-05-18T05:23:44.666Z,5792
2017-05-18T05:24:25.240Z,5872
2017-05-18T05:25:06.813Z,6004
2017-05-18T05:25:47.371Z,6156
2017-05-18T05:26:27.948Z,6296
2017-05-18T05:27:08.466Z,6412
2017-05-18T05:27:48.998Z,6464
2017-05-18T05:28:29.614Z,6492
2017-05-18T05:29:10.165Z,6464
2017-05-18T05:29:50.768Z,6360
2017-05-18T05:30:31.309Z,6276
2017-05-18T05:31:11.969Z,6096
2017-05-18T05:31:52.528Z,5964
2017-05-18T05:32:33.180Z,5920
2017-05-18T05:33:13.726Z,5924
2017-05-18T05:33:54.280Z,5884
2017-05-18T05:34:34.937Z,5892
2017-05-18T05:35:15.465Z,5872
2017-05-18T05:35:56.038Z,5888
2017-05-18T05:36:36.669Z,5892
2017-05-18T05:37:17.346Z,5920
2017-05-18T05:37:57.883Z,5808
2017-05-18T05:38:38.412Z,5800
2017-05-18T05:39:18.984Z,5888
2017-05-18T05:39:59.522Z,5992
2017-05-18T05:40:40.182Z,6088
2017-05-18T05:41:20.722Z,6376
2017-05-18T05:42:01.236Z,6588
2017-05-18T05:42:41.845Z,6628
2017-05-18T05:43:22.362Z,6660
2017-05-18T05:44:02.975Z,6700
2017-05-18T05:44:43.525Z,6656
2017-05-18T05:45:24.098Z,6632
2017-05-18T05:46:04.646Z,6660
2017-05-18T05:46:45.186Z,6784
2017-05-18T05:47:25.711Z,6832
2017-05-18T05:48:06.348Z,6860
2017-05-18T05:48:46.864Z,6856
2017-05-18T05:49:27.448Z,6948
2017-05-18T05:50:07.994Z,7032
2017-05-18T05:50:48.502Z,7132
2017-05-18T05:51:29.165Z,7164
2017-05-18T05:52:09.756Z,7180
2017-05-18T05:52:50.309Z,7380
2017-05-18T05:53:30.892Z,7476
2017-05-18T05:54:11.468Z,7420
2017-05-18T05:54:52.057Z,7432
2017-05-18T05:55:32.585Z,7464
2017-05-18T05:56:13.178Z,7484
2017-05-18T05:56:53.765Z,7524
2017-05-18T05:57:34.355Z,7612
2017-05-18T05:58:14.868Z,7748
2017-05-18T05:58:55.411Z,8000
2017-05-18T05:59:35.930Z,8116
2017-05-18T06:00:16.555Z,8072
2017-05-18T06:00:57.143Z,8144
2017-05-18T06:01:37.759Z,8340
2017-05-18T06:02:18.276Z,8552
2017-05-18T06:02:58.843Z,8964
2017-05-18T06:03:39.446Z,9128
2017-05-18T06:04:20.037Z,9300
2017-05-18T06:05:00.551Z,9240
2017-05-18T06:05:41.176Z,9404
2017-05-18T06:06:21.821Z,9572
2017-05-18T06:07:02.367Z,9600
2017-05-18T06:07:42.985Z,9508
2017-05-18T06:08:23.523Z,9268
2017-05-18T06:09:04.145Z,9332
2017-05-18T06:09:44.669Z,9320
2017-05-18T06:10:25.257Z,9196
2017-05-18T06:11:05.814Z,8976
2017-05-18T06:11:46.555Z,9168
2017-05-18T06:12:28.139Z,9156
2017-05-18T06:13:08.734Z,8888
2017-05-18T06:13:49.349Z,8776
2017-05-18T06:14:29.927Z,8744
2017-05-18T06:15:10.534Z,8676
2017-05-18T06:15:51.062Z,8704
2017-05-18T06:16:31.623Z,8684
2017-05-18T06:17:12.224Z,8880
2017-05-18T06:17:52.827Z,8908
2017-05-18T06:18:33.409Z,8888
2017-05-18T06:19:13.952Z,8812
2017-05-18T06:19:54.519Z,8592
2017-05-18T06:20:35.121Z,8400
2017-05-18T06:21:15.651Z,8276
2017-05-18T06:21:57.278Z,8140
2017-05-18T06:22:37.856Z,7896
2017-05-18T06:23:18.455Z,7660
2017-05-18T06:23:58.999Z,7416
2017-05-18T06:24:40.587Z,7200
2017-05-18T06:25:21.210Z,6948
2017-05-18T06:26:01.799Z,6760
2017-05-18T06:26:42.341Z,6692
2017-05-18T06:27:22.890Z,6732
2017-05-18T06:28:03.464Z,6788
2017-05-18T06:28:44.022Z,6724
2017-05-18T06:29:24.542Z,6524
2017-05-18T06:30:05.081Z,6288
2017-05-18T06:30:45.599Z,6104
2017-05-18T06:31:26.142Z,5864
2017-05-18T06:32:06.747Z,5692
2017-05-18T06:32:47.272Z,5668
2017-05-18T06:33:27.850Z,5716
2017-05-18T06:34:08.395Z,5716
2017-05-18T06:34:49.076Z,5784
2017-05-18T06:35:29.625Z,6072
2017-05-18T06:36:10.145Z,6644
2017-05-18T06:36:50.705Z,7308
2017-05-18T06:37:31.353Z,7848
2017-05-18T06:38:11.899Z,8208
2017-05-18T06:38:52.423Z,8468
2017-05-18T06:39:33.002Z,8676
2017-05-18T06:40:13.570Z,8804
2017-05-18T06:40:54.127Z,8920
2017-05-18T06:41:34.650Z,8980
2017-05-18T06:42:15.239Z,8988
2017-05-18T06:42:55.756Z,9024
2017-05-18T06:43:36.330Z,9044
2017-05-18T06:44:16.918Z,9072
2017-05-18T06:44:57.511Z,9136
2017-05-18T06:45:38.045Z,9168
2017-05-18T06:46:18.635Z,8992
2017-05-18T06:46:59.232Z,8748
2017-05-18T06:47:39.817Z,8448
2017-05-18T06:48:20.337Z,8168
2017-05-18T06:49:00.940Z,7956
2017-05-18T06:49:41.482Z,7828
2017-05-18T06:50:22.017Z,7748
2017-05-18T06:51:02.569Z,7636
2017-05-18T06:51:43.111Z,7172
2017-05-18T06:52:23.669Z,6464
2017-05-18T06:53:04.269Z,5764
2017-05-18T06:53:44.877Z,5212
2017-05-18T06:54:25.426Z,4848
2017-05-18T06:55:05.977Z,4632
2017-05-18T06:55:46.527Z,4500
2017-05-18T06:56:27.076Z,4508
2017-05-18T06:57:07.640Z,4580
2017-05-18T06:57:48.279Z,4648
2017-05-18T06:58:28.825Z,4628
2017-05-18T06:59:10.394Z,4600
2017-05-18T06:59:51.050Z,4680
2017-05-18T07:00:32.022Z,4964
2017-05-18T07:01:12.570Z,5316
2017-05-18T07:01:53.148Z,5488
2017-05-18T07:02:33.781Z,5572
2017-05-18T07:03:14.379Z,5552
2017-05-18T07:03:54.903Z,5656
2017-05-18T07:04:36.502Z,5840
2017-05-18T07:05:17.052Z,6312
2017-05-18T07:05:57.651Z,6712
2017-05-18T07:06:38.169Z,6984
2017-05-18T07:07:18.708Z,7092
2017-05-18T07:07:59.300Z,7108
2017-05-18T07:08:39.839Z,7152
2017-05-18T07:09:20.529Z,7184
2017-05-18T07:10:01.084Z,7156
2017-05-18T07:10:41.714Z,7156
2017-05-18T07:11:22.285Z,7024
2017-05-18T07:12:02.941Z,6900
2017-05-18T07:12:43.483Z,6820
2017-05-18T07:13:24.028Z,6804
2017-05-18T07:14:04.676Z,6704
2017-05-18T07:14:45.332Z,6624
2017-05-18T07:15:25.879Z,6456
2017-05-18T07:16:06.424Z,6344
2017-05-18T07:16:46.968Z,6012
2017-05-18T07:17:27.518Z,5512
2017-05-18T07:18:09.496Z,4892
2017-05-18T07:18:50.058Z,4428
2017-05-18T07:19:30.578Z,4132
2017-05-18T07:20:11.171Z,3968
2017-05-18T07:20:51.778Z,4008
2017-05-18T07:21:32.370Z,3940
2017-05-18T07:22:12.898Z,4060
2017-05-18T07:22:53.486Z,4204
2017-05-18T07:23:34.084Z,4148
2017-05-18T07:24:14.668Z,4156
2017-05-18T07:24:55.293Z,4180
2017-05-18T07:25:35.835Z,4136
2017-05-18T07:26:17.422Z,4088
2017-05-18T07:26:57.974Z,4012
2017-05-18T07:27:38.524Z,3928
2017-05-18T07:28:19.476Z,3872
2017-05-18T07:28:59.982Z,3716
2017-05-18T07:29:40.531Z,3528
2017-05-18T07:30:21.152Z,3248
2017-05-18T07:31:01.685Z,3264
2017-05-18T07:31:42.301Z,3364
2017-05-18T07:32:22.887Z,3168
2017-05-18T07:33:03.390Z,3044
2017-05-18T07:33:44.036Z,2992
2017-05-18T07:34:24.637Z,2972
2017-05-18T07:35:05.195Z,2944
2017-05-18T07:35:45.750Z,2924
2017-05-18T07:36:26.359Z,2980
2017-05-18T07:37:06.944Z,3132
2017-05-18T07:37:47.484Z,3328
2017-05-18T07:38:28.057Z,3440
2017-05-18T07:39:08.644Z,3504
2017-05-18T07:39:49.192Z,3532
2017-05-18T07:40:29.697Z,3660
2017-05-18T07:41:10.213Z,4020
2017-05-18T07:41:50.870Z,4272
2017-05-18T07:42:31.394Z,4540
2017-05-18T07:43:12.406Z,4728
2017-05-18T07:43:53.032Z,4916
2017-05-18T07:44:33.619Z,5168
2017-05-18T07:45:14.219Z,5384
2017-05-18T07:45:54.891Z,5612
2017-05-18T07:46:35.500Z,5832
2017-05-18T07:47:16.074Z,6148
2017-05-18T07:47:57.094Z,6756
2017-05-18T07:48:37.682Z,7696
2017-05-18T07:49:18.512Z,8424
2017-05-18T07:49:59.122Z,8744
2017-05-18T07:50:39.702Z,8688
2017-05-18T07:51:20.301Z,8652
2017-05-18T07:52:00.938Z,8576
2017-05-18T07:52:42.624Z,8944
2017-05-18T07:53:23.137Z,8844
2017-05-18T07:54:03.684Z,8016
2017-05-18T07:54:44.441Z,7352
2017-05-18T07:55:25.543Z,6976
2017-05-18T07:56:08.800Z,6532
2017-05-18T07:56:49.724Z,6060
2017-05-18T07:57:32.477Z,5824
2017-05-18T07:58:13.127Z,5952
2017-05-18T07:58:53.693Z,6320
2017-05-18T07:59:34.332Z,6712
2017-05-18T08:00:14.988Z,7084
2017-05-18T08:00:55.648Z,7188
2017-05-18T08:01:36.189Z,7140
2017-05-18T08:02:16.838Z,7260
2017-05-18T08:02:57.391Z,7352
2017-05-18T08:03:38.038Z,7352
2017-05-18T08:04:18.564Z,7396
2017-05-18T08:04:59.188Z,7408
2017-05-18T08:05:39.802Z,7392
2017-05-18T08:06:20.328Z,7376
2017-05-18T08:07:00.945Z,7328
2017-05-18T08:07:41.609Z,7240
2017-05-18T08:08:22.073Z,6980
2017-05-18T08:09:02.600Z,6512
2017-05-18T08:09:43.170Z,5696
2017-05-18T08:10:23.801Z,4908
2017-05-18T08:11:05.381Z,4628
2017-05-18T08:11:45.951Z,4768
2017-05-18T08:12:26.471Z,5064
2017-05-18T08:13:07.027Z,5588
2017-05-18T08:13:47.601Z,6124
2017-05-18T08:14:28.185Z,6484
2017-05-18T08:15:08.836Z,6680
2017-05-18T08:15:49.501Z,6800
2017-05-18T08:16:30.141Z,6544
2017-05-18T08:17:10.670Z,6228
2017-05-18T08:17:51.296Z,5984
2017-05-18T08:18:31.903Z,5796
2017-05-18T08:19:12.447Z,5652
2017-05-18T08:19:53.103Z,5748
2017-05-18T08:20:34.777Z,5636
2017-05-18T08:21:15.327Z,5172
2017-05-18T08:21:55.870Z,4760
2017-05-18T08:22:36.437Z,4880
2017-05-18T08:23:17.012Z,5772
2017-05-18T08:23:58.579Z,6808
2017-05-18T08:24:39.098Z,7624
2017-05-18T08:25:20.690Z,8408
2017-05-18T08:26:01.309Z,9040
2017-05-18T08:26:41.886Z,8888
2017-05-18T08:27:22.437Z,8444
2017-05-18T08:28:03.023Z,8272
2017-05-18T08:28:43.605Z,8516
2017-05-18T08:29:25.209Z,8044
2017-05-18T08:30:05.754Z,7032
2017-05-18T08:30:46.393Z,6480
2017-05-18T08:31:26.970Z,6204
2017-05-18T08:32:07.501Z,5856
2017-05-18T08:32:49.033Z,5320
2017-05-18T08:33:29.653Z,4812
2017-05-18T08:34:10.220Z,4740
2017-05-18T08:34:50.816Z,4996
2017-05-18T08:35:31.404Z,5484
2017-05-18T08:36:11.951Z,5980
2017-05-18T08:36:53.538Z,6652
2017-05-18T08:37:35.094Z,7468
2017-05-18T08:38:15.753Z,8136
2017-05-18T08:38:56.310Z,8468
2017-05-18T08:39:36.820Z,8560
2017-05-18T08:40:17.478Z,8620
2017-05-18T08:40:58.105Z,8524
2017-05-18T08:41:38.575Z,8376
2017-05-18T08:42:19.219Z,8200
2017-05-18T08:42:59.810Z,8020
2017-05-18T08:43:40.361Z,7828
2017-05-18T08:44:20.972Z,7652
2017-05-18T08:45:01.566Z,7440
2017-05-18T08:45:42.111Z,7252
2017-05-18T08:46:22.724Z,7240
2017-05-18T08:47:03.322Z,7424
2017-05-18T08:47:43.866Z,7760
2017-05-18T08:48:24.477Z,8036
2017-05-18T08:49:05.072Z,8344
2017-05-18T08:49:45.600Z,8712
2017-05-18T08:50:26.256Z,9268
2017-05-18T08:51:06.784Z,9580
2017-05-18T08:51:47.361Z,9452
2017-05-18T08:52:27.964Z,9528
2017-05-18T08:53:08.547Z,9692
2017-05-18T08:53:49.088Z,9992
2017-05-18T08:54:29.760Z,10040
2017-05-18T08:55:10.301Z,9988
2017-05-18T08:55:50.845Z,9664
2017-05-18T08:56:31.440Z,9196
2017-05-18T08:57:11.952Z,8940
2017-05-18T08:57:52.953Z,8888
2017-05-18T08:58:33.533Z,8952
2017-05-18T08:59:14.088Z,8872
2017-05-18T08:59:54.678Z,8776
2017-05-18T09:00:35.256Z,8984
2017-05-18T09:01:15.909Z,9404
2017-05-18T09:01:56.496Z,9928
2017-05-18T09:02:37.093Z,10500
2017-05-18T09:03:17.641Z,10824
2017-05-18T09:03:58.311Z,11044
2017-05-18T09:04:38.911Z,10760
2017-05-18T09:05:19.472Z,10560
2017-05-18T09:06:00.044Z,11008
2017-05-18T09:06:40.700Z,11380
2017-05-18T09:07:21.339Z,11480
2017-05-18T09:08:01.904Z,11492
2017-05-18T09:08:42.552Z,11380
2017-05-18T09:09:23.111Z,11528
2017-05-18T09:10:03.641Z,11712
2017-05-18T09:10:44.296Z,11884
2017-05-18T09:11:24.863Z,11992
2017-05-18T09:12:05.520Z,12080
2017-05-18T09:12:46.221Z,12084
2017-05-18T09:13:26.820Z,12052
2017-05-18T09:14:07.453Z,12480
2017-05-18T09:14:48.005Z,13568
2017-05-18T09:15:28.663Z,14172
2017-05-18T09:16:09.202Z,14520
2017-05-18T09:16:49.774Z,14468
2017-05-18T09:17:30.387Z,14200
2017-05-18T09:18:10.992Z,13364
2017-05-18T09:18:51.574Z,12828
2017-05-18T09:19:32.273Z,12960
2017-05-18T09:20:12.951Z,13332
2017-05-18T09:20:53.485Z,13172